Latest Weather Observations for Sydney Harbour

IDN60801

Issued at 2:02 am EST Wednesday 27 May 2015 (issued every 30 minutes, with the page automatically refreshed every 10 minutes)

About weather observations | Map of weather stations | Latest weather observations for NSW | Other Formats
Station Details ID: 066196 Name: WEDDING CAKE WEST Lat: -33.84 Lon: 151.26 Height: 6.0 m
Data from the previous 72 hours. | See also: Recent months for locations in New South Wales
Date/Time
EST
Temp
°C
App
Temp
°C
Dew
Point
Rel
Hum
%
Delta-T
°C
Wind Press
QNH
hPa
Press
MSL
hPa
Rain
since 9 am
mm
Dir
 
Spd
km/h
Gust
km/h
Spd
kts
Gust
kts
27/02:00am 13.6 - - - - WSW 15 17 8 9 - - -
27/01:30am 14.0 - - - - W 20 24 11 13 - - -
27/01:00am 14.0 - - - - WSW 17 22 9 12 - - -
27/12:30am 14.5 - - - - W 13 19 7 10 - - -
27/12:00am 14.5 - - - - WSW 11 15 6 8 - - -
 
Date/Time
EST
Temp
°C
App
Temp
°C
Dew
Point
Rel
Hum
%
Delta-T
°C
Wind Press
QNH
hPa
Press
MSL
hPa
Rain
since 9 am
mm
Dir
 
Spd
km/h
Gust
km/h
Spd
kts
Gust
kts
26/11:30pm 14.4 - - - - WSW 7 9 4 5 - - -
26/11:00pm 14.4 - - - - WSW 11 17 6 9 - - -
26/10:30pm 14.6 - - - - WSW 20 24 11 13 - - -
26/10:00pm 14.7 - - - - SW 13 17 7 9 - - -
26/09:30pm 15.1 - - - - SW 9 11 5 6 - - -
26/09:00pm 15.3 - - - - WSW 7 11 4 6 - - -
26/08:30pm 15.6 - - - - W 11 13 6 7 - - -
26/08:00pm 15.3 - - - - W 15 17 8 9 - - -
26/07:30pm 15.8 - - - - W 19 22 10 12 - - -
26/07:00pm 15.9 - - - - WNW 15 20 8 11 - - -
26/06:30pm 16.3 - - - - W 11 13 6 7 - - -
26/06:00pm 16.0 - - - - SSW 9 11 5 6 - - -
26/05:30pm 16.3 - - - - SSW 9 11 5 6 - - -
26/05:00pm 16.4 - - - - SSW 7 9 4 5 - - -
26/04:30pm 17.2 - - - - SSW 11 11 6 6 - - -
26/04:00pm 17.3 - - - - SSW 13 13 7 7 - - -
26/03:30pm 17.4 - - - - SSW 11 15 6 8 - - -
26/03:00pm 17.5 - - - - SW 13 17 7 9 - - -
26/02:30pm 17.5 - - - - SW 15 17 8 9 - - -
26/02:00pm 17.3 - - - - SSW 15 17 8 9 - - -
26/01:30pm 17.1 - - - - SW 15 19 8 10 - - -
26/01:00pm 16.9 - - - - WSW 11 15 6 8 - - -
26/12:30pm 16.3 - - - - WSW 15 17 8 9 - - -
26/12:00pm 15.8 - - - - WSW 19 22 10 12 - - -
26/11:30am 15.0 - - - - WSW 20 24 11 13 - - -
26/11:00am 14.7 - - - - WSW 13 17 7 9 - - -
26/10:30am 14.0 - - - - W 11 13 6 7 - - -
26/10:00am 13.2 - - - - SW 9 13 5 7 - - -
26/09:30am 11.9 - - - - WSW 15 20 8 11 - - -
26/09:00am 11.5 - - - - W 13 20 7 11 - - -
26/08:30am 11.1 - - - - W 13 17 7 9 - - -
26/08:00am 10.7 - - - - WSW 13 19 7 10 - - -
26/07:30am 10.4 - - - - WSW 17 24 9 13 - - -
26/07:00am 10.4 - - - - WSW 13 19 7 10 - - -
26/06:30am 10.5 - - - - WSW 17 20 9 11 - - -
26/06:00am 10.6 - - - - W 17 22 9 12 - - -
26/05:30am 11.2 - - - - W 13 19 7 10 - - -
26/05:00am 11.6 - - - - WSW 13 17 7 9 - - -
26/04:30am 11.4 - - - - WSW 13 19 7 10 - - -
26/04:00am 11.3 - - - - W 17 20 9 11 - - -
26/03:30am 11.7 - - - - WSW 13 19 7 10 - - -
26/03:00am 11.9 - - - - W 13 17 7 9 - - -
26/02:30am 11.9 - - - - WSW 11 15 6 8 - - -
26/02:00am 11.9 - - - - W 9 11 5 6 - - -
26/01:30am 12.9 - - - - W 13 17 7 9 - - -
26/01:00am 13.1 - - - - W 17 19 9 10 - - -
26/12:30am 13.2 - - - - W 9 11 5 6 - - -
26/12:00am 13.7 - - - - W 15 20 8 11 - - -
 
Date/Time
EST
Temp
°C
App
Temp
°C
Dew
Point
Rel
Hum
%
Delta-T
°C
Wind Press
QNH
hPa
Press
MSL
hPa
Rain
since 9 am
mm
Dir
 
Spd
km/h
Gust
km/h
Spd
kts
Gust
kts
25/11:30pm 13.5 - - - - WSW 17 20 9 11 - - -
25/11:00pm 13.5 - - - - W 17 20 9 11 - - -
25/10:30pm 14.1 - - - - WSW 20 24 11 13 - - -
25/10:00pm 14.7 - - - - WSW 19 22 10 12 - - -
25/09:30pm 15.0 - - - - W 19 20 10 11 - - -
25/09:00pm 15.0 - - - - WSW 15 19 8 10 - - -
25/08:30pm 14.9 - - - - W 11 15 6 8 - - -
25/08:00pm 15.2 - - - - CALM 0 0 0 0 - - -
25/07:30pm 15.6 - - - - W 9 9 5 5 - - -
25/07:00pm 15.8 - - - - CALM 0 0 0 0 - - -
25/06:30pm 16.5 - - - - N 7 9 4 5 - - -
25/06:00pm 16.5 - - - - N 7 7 4 4 - - -
25/05:30pm 16.9 - - - - N 7 7 4 4 - - -
25/05:00pm 17.3 - - - - N 6 7 3 4 - - -
25/04:30pm 17.5 - - - - N 7 7 4 4 - - -
25/04:00pm 17.2 - - - - N 7 9 4 5 - - -
25/03:30pm 17.8 - - - - NNE 13 15 7 8 - - -
25/03:00pm 17.8 - - - - N 2 9 1 5 - - -
25/02:30pm 17.9 - - - - N 13 15 7 8 - - -
25/02:00pm 17.9 - - - - NNW 13 20 7 11 - - -
25/01:30pm 16.8 - - - - SW 6 9 3 5 - - -
25/01:00pm 16.3 - - - - SW 7 9 4 5 - - -
25/12:30pm 15.8 - - - - SW 9 11 5 6 - - -
25/12:00pm 15.7 - - - - SW 9 13 5 7 - - -
25/11:30am 15.2 - - - - WSW 11 13 6 7 - - -
25/11:00am 14.6 - - - - WSW 13 17 7 9 - - -
25/10:30am 14.0 - - - - SW 11 15 6 8 - - -
25/10:00am 13.2 - - - - SW 13 17 7 9 - - -
25/09:30am 12.9 - - - - WSW 11 17 6 9 - - -
25/09:00am 12.1 - - - - W 13 17 7 9 - - -
25/08:30am 11.9 - - - - WSW 13 19 7 10 - - -
25/08:00am 11.6 - - - - WSW 13 17 7 9 - - -
25/07:30am 11.3 - - - - WSW 15 19 8 10 - - -
25/07:00am 11.7 - - - - W 9 13 5 7 - - -
25/06:30am 11.9 - - - - WSW 11 17 6 9 - - -
25/06:00am 12.2 - - - - WSW 9 15 5 8 - - -
25/05:30am 11.9 - - - - WSW 11 15 6 8 - - -
25/05:00am 12.2 - - - - WSW 9 13 5 7 - - -
25/04:30am 12.1 - - - - W 13 17 7 9 - - -
25/04:00am 12.3 - - - - W 15 20 8 11 - - -
25/03:30am 11.9 - - - - W 13 19 7 10 - - -
25/03:00am 11.7 - - - - W 20 26 11 14 - - -
25/02:30am 12.1 - - - - W 19 20 10 11 - - -
25/02:00am 12.3 - - - - W 15 17 8 9 - - -
25/01:30am 12.6 - - - - WSW 15 20 8 11 - - -
25/01:00am 12.8 - - - - SW 9 15 5 8 - - -
25/12:30am 13.1 - - - - W 15 20 8 11 - - -
25/12:00am 12.6 - - - - W 19 22 10 12 - - -
 
Date/Time
EST
Temp
°C
App
Temp
°C
Dew
Point
Rel
Hum
%
Delta-T
°C
Wind Press
QNH
hPa
Press
MSL
hPa
Rain
since 9 am
mm
Dir
 
Spd
km/h
Gust
km/h
Spd
kts
Gust
kts
24/11:30pm 13.7 - - - - WSW 13 19 7 10 - - -
24/11:00pm 14.5 - - - - SSE 4 7 2 4 - - -
24/10:30pm 14.5 - - - - CALM 0 0 0 0 - - -
24/10:00pm 14.3 - - - - SSE 4 7 2 4 - - -
24/09:30pm 14.8 - - - - CALM 0 0 0 0 - - -
24/09:00pm 14.6 - - - - CALM 0 0 0 0 - - -
24/08:30pm 14.7 - - - - CALM 0 0 0 0 - - -
24/08:00pm 14.9 - - - - CALM 0 0 0 0 - - -
24/07:30pm 15.3 - - - - CALM 0 0 0 0 - - -
24/07:00pm 15.7 - - - - CALM 0 0 0 0 - - -
24/06:30pm 15.8 - - - - CALM 0 0 0 0 - - -
24/06:00pm 16.0 - - - - CALM 0 0 0 0 - - -
24/05:30pm 16.3 - - - - SSE 4 6 2 3 - - -
24/05:00pm 16.7 - - - - SSE 7 9 4 5 - - -
24/04:30pm 17.2 - - - - SSE 7 9 4 5 - - -
24/04:00pm 17.3 - - - - SSE 9 15 5 8 - - -
24/03:30pm 17.4 - - - - SSE 9 13 5 7 - - -
24/03:00pm 17.5 - - - - S 11 15 6 8 - - -
24/02:30pm 17.3 - - - - S 13 17 7 9 - - -
24/02:00pm 17.8 - - - - SW 7 13 4 7 - - -
24/01:30pm 17.2 - - - - WSW 7 11 4 6 - - -
24/01:00pm 16.6 - - - - WSW 13 17 7 9 - - -
24/12:30pm 16.4 - - - - W 15 20 8 11 - - -
24/12:00pm 15.6 - - - - W 20 24 11 13 - - -
24/11:30am 14.9 - - - - W 20 26 11 14 - - -
24/11:00am 14.0 - - - - W 20 28 11 15 - - -
24/10:30am 12.9 - - - - WSW 22 28 12 15 - - -
24/10:00am 12.1 - - - - WSW 26 32 14 17 - - -
24/09:30am 11.3 - - - - WSW 20 26 11 14 - - -
24/09:00am 11.0 - - - - W 13 19 7 10 - - -
24/08:30am 10.4 - - - - W 26 37 14 20 - - -
24/08:00am 10.1 - - - - W 30 37 16 20 - - -
24/07:30am 10.3 - - - - W 24 32 13 17 - - -
24/07:00am 9.9 - - - - W 28 33 15 18 - - -
24/06:30am 10.0 - - - - W 26 32 14 17 - - -
24/06:00am 10.2 - - - - W 28 35 15 19 - - -
24/05:30am 9.9 - - - - W 33 39 18 21 - - -
24/05:00am 10.3 - - - - W 30 37 16 20 - - -
24/04:30am 10.4 - - - - W 24 30 13 16 - - -
24/04:00am 10.6 - - - - W 26 32 14 17 - - -
24/03:30am 10.8 - - - - WSW 24 30 13 16 - - -
24/03:00am 11.3 - - - - W 24 28 13 15 - - -
24/02:30am 11.5 - - - - W 28 32 15 17 - - -

Other Formats:

Comma delimited format used in spreadsheet applications
http://www.bom.gov.au/fwo/IDN60801/IDN60801.95766.axf

JavaScript Object Notation format (JSON) in row-major order
http://www.bom.gov.au/fwo/IDN60801/IDN60801.95766.json